createdAt,value
2023-03-17T00:00:09.485Z,59.95
2023-03-17T00:01:09.495Z,59.85
2023-03-17T00:02:09.536Z,59.95
2023-03-17T00:03:09.458Z,60.06
2023-03-17T00:04:09.454Z,59.95
2023-03-17T00:05:09.419Z,60.06
2023-03-17T00:06:09.432Z,59.95
2023-03-17T00:07:09.422Z,60.06
2023-03-17T00:08:09.401Z,60.27
2023-03-17T00:09:09.387Z,60.27
2023-03-17T00:10:09.362Z,60.27
2023-03-17T00:11:09.396Z,60.27
2023-03-17T00:12:09.338Z,60.47
2023-03-17T00:13:09.374Z,60.37
2023-03-17T00:14:09.337Z,60.37
2023-03-17T00:15:09.353Z,60.47
2023-03-17T00:16:09.345Z,60.37
2023-03-17T00:17:09.287Z,60.27
2023-03-17T00:18:09.331Z,60.27
2023-03-17T00:19:09.304Z,60.27
2023-03-17T00:20:09.290Z,60.16
2023-03-17T00:21:09.266Z,60.37
2023-03-17T00:22:09.311Z,60.27
2023-03-17T00:23:09.297Z,60.27
2023-03-17T00:24:09.254Z,60.37
2023-03-17T00:25:09.238Z,60.27
2023-03-17T00:26:09.220Z,60.27
2023-03-17T00:27:09.225Z,60.37
2023-03-17T00:28:09.187Z,60.58
2023-03-17T00:29:09.214Z,60.27
2023-03-17T00:30:09.169Z,60.37
2023-03-17T00:31:09.212Z,60.27
2023-03-17T00:32:09.132Z,60.37
2023-03-17T00:33:09.134Z,60.47
2023-03-17T00:34:09.140Z,60.58
2023-03-17T00:35:09.132Z,60.37
2023-03-17T00:36:09.118Z,60.58
2023-03-17T00:37:09.126Z,60.60
2023-03-17T00:38:09.104Z,60.60
2023-03-17T00:39:09.103Z,60.71
2023-03-17T00:40:09.138Z,60.71
2023-03-17T00:41:09.087Z,60.81
2023-03-17T00:42:09.072Z,60.81
2023-03-17T00:43:09.031Z,60.71
2023-03-17T00:44:09.018Z,60.71
2023-03-17T00:45:09.033Z,60.71
2023-03-17T00:46:09.027Z,60.71
2023-03-17T00:47:08.977Z,60.71
2023-03-17T00:48:08.962Z,60.81
2023-03-17T00:49:08.972Z,60.81
2023-03-17T00:50:08.975Z,60.81
2023-03-17T00:51:08.931Z,60.91
2023-03-17T00:52:08.984Z,60.91
2023-03-17T00:53:08.956Z,60.91
2023-03-17T00:54:08.926Z,61.02
2023-03-17T00:55:08.937Z,61.12
2023-03-17T00:56:08.905Z,61.02
2023-03-17T00:57:08.884Z,61.02
2023-03-17T00:58:08.869Z,61.22
2023-03-17T00:59:08.937Z,61.33
2023-03-17T01:00:08.912Z,61.33
2023-03-17T01:01:08.939Z,61.43
2023-03-17T01:02:08.893Z,61.43
2023-03-17T01:03:08.823Z,61.43
2023-03-17T01:04:08.853Z,61.43
2023-03-17T01:05:08.834Z,61.54
2023-03-17T01:06:08.801Z,61.74
2023-03-17T01:07:08.871Z,61.74
2023-03-17T01:08:08.779Z,61.74
2023-03-17T01:09:08.761Z,61.74
2023-03-17T01:10:08.743Z,61.98
2023-03-17T01:11:08.754Z,61.98
2023-03-17T01:12:08.732Z,62.08
2023-03-17T01:13:08.723Z,62.18
2023-03-17T01:14:08.714Z,62.29
2023-03-17T01:15:08.733Z,62.18
2023-03-17T01:16:08.737Z,62.08
2023-03-17T01:17:08.664Z,62.08
2023-03-17T01:18:08.671Z,62.29
2023-03-17T01:19:08.670Z,62.29
2023-03-17T01:20:08.658Z,62.39
2023-03-17T01:21:08.669Z,62.49
2023-03-17T01:22:08.601Z,62.39
2023-03-17T01:23:08.592Z,62.49
2023-03-17T01:24:08.630Z,62.49
2023-03-17T01:25:08.679Z,62.49
2023-03-17T01:26:08.580Z,62.70
2023-03-17T01:27:08.562Z,62.70
2023-03-17T01:28:08.609Z,62.70
2023-03-17T01:29:08.545Z,62.70
2023-03-17T01:30:08.555Z,62.49
2023-03-17T01:31:08.559Z,62.60
2023-03-17T01:32:08.555Z,62.70
2023-03-17T01:33:09.803Z,62.91
2023-03-17T01:34:08.514Z,62.91
2023-03-17T01:35:08.520Z,63.01
2023-03-17T01:36:08.537Z,62.81
2023-03-17T01:37:08.485Z,62.91
2023-03-17T01:38:08.489Z,63.12
2023-03-17T01:39:08.474Z,63.09
2023-03-17T01:40:08.440Z,63.12
2023-03-17T01:41:08.438Z,63.12
2023-03-17T01:42:08.417Z,63.32
2023-03-17T01:43:08.409Z,63.32
2023-03-17T01:44:08.418Z,63.32
2023-03-17T01:45:08.376Z,63.32
2023-03-17T01:46:08.484Z,63.43
2023-03-17T01:47:08.398Z,63.43
2023-03-17T01:48:08.368Z,63.53
2023-03-17T01:49:08.371Z,63.64
2023-03-17T01:50:08.459Z,63.84
2023-03-17T01:51:08.311Z,63.84
2023-03-17T01:52:08.326Z,63.84
2023-03-17T01:53:08.329Z,63.84
2023-03-17T01:54:08.337Z,63.74
2023-03-17T01:55:08.315Z,63.74
2023-03-17T01:56:08.271Z,64.04
2023-03-17T01:57:08.267Z,63.95
2023-03-17T01:58:08.244Z,63.95
2023-03-17T01:59:08.256Z,63.95
2023-03-17T02:00:08.246Z,63.95
2023-03-17T02:01:08.259Z,63.74
2023-03-17T02:02:08.197Z,63.84
2023-03-17T02:03:08.212Z,64.04
2023-03-17T02:04:08.316Z,64.15
2023-03-17T02:05:08.192Z,64.15
2023-03-17T02:06:08.191Z,64.25
2023-03-17T02:07:08.156Z,64.25
2023-03-17T02:08:08.161Z,64.36
2023-03-17T02:09:08.146Z,64.25
2023-03-17T02:10:08.130Z,64.36
2023-03-17T02:11:08.113Z,64.36
2023-03-17T02:12:08.084Z,64.36
2023-03-17T02:13:08.080Z,64.15
2023-03-17T02:14:08.127Z,64.15
2023-03-17T02:15:08.068Z,64.25
2023-03-17T02:16:08.076Z,64.15
2023-03-17T02:17:08.067Z,64.36
2023-03-17T02:18:08.057Z,64.46
2023-03-17T02:19:08.050Z,64.59
2023-03-17T02:20:08.016Z,64.56
2023-03-17T02:21:08.036Z,64.46
2023-03-17T02:22:07.993Z,64.25
2023-03-17T02:23:08.200Z,64.15
2023-03-17T02:24:08.021Z,64.15
2023-03-17T02:25:07.962Z,64.25
2023-03-17T02:26:07.948Z,64.15
2023-03-17T02:27:07.979Z,64.25
2023-03-17T02:28:07.961Z,64.25
2023-03-17T02:29:07.976Z,64.25
2023-03-17T02:30:07.895Z,64.18
2023-03-17T02:31:08.032Z,64.25
2023-03-17T02:32:07.882Z,64.18
2023-03-17T02:33:07.912Z,63.97
2023-03-17T02:34:07.895Z,64.28
2023-03-17T02:35:07.890Z,64.25
2023-03-17T02:36:07.870Z,64.25
2023-03-17T02:37:07.874Z,64.18
2023-03-17T02:38:07.858Z,64.39
2023-03-17T02:39:07.851Z,64.28
2023-03-17T02:40:07.829Z,64.04
2023-03-17T02:41:07.820Z,63.97
2023-03-17T02:42:07.822Z,64.28
2023-03-17T02:43:07.780Z,64.25
2023-03-17T02:44:07.798Z,63.95
2023-03-17T02:45:08.758Z,64.07
2023-03-17T02:46:07.837Z,64.07
2023-03-17T02:47:07.772Z,64.07
2023-03-17T02:48:07.760Z,64.18
2023-03-17T02:49:07.761Z,64.18
2023-03-17T02:50:07.703Z,63.95
2023-03-17T02:51:07.714Z,64.18
2023-03-17T02:52:07.705Z,64.49
2023-03-17T02:53:07.721Z,64.18
2023-03-17T02:54:07.663Z,64.18
2023-03-17T02:55:07.674Z,64.07
2023-03-17T02:56:07.644Z,64.28
2023-03-17T02:57:07.636Z,64.18
2023-03-17T02:58:07.669Z,64.28
2023-03-17T02:59:07.644Z,64.28
2023-03-17T03:00:07.617Z,64.18
2023-03-17T03:01:07.605Z,64.28
2023-03-17T03:02:07.599Z,64.18
2023-03-17T03:03:07.585Z,64.07
2023-03-17T03:04:07.614Z,63.76
2023-03-17T03:05:07.556Z,63.97
2023-03-17T03:06:07.585Z,63.95
2023-03-17T03:07:07.552Z,63.95
2023-03-17T03:08:07.514Z,63.84
2023-03-17T03:09:07.525Z,63.84
2023-03-17T03:10:07.498Z,63.74
2023-03-17T03:11:07.478Z,63.95
2023-03-17T03:12:07.474Z,63.84
2023-03-17T03:13:07.526Z,63.76
2023-03-17T03:14:07.463Z,63.56
2023-03-17T03:15:07.472Z,63.66
2023-03-17T03:16:07.499Z,63.76
2023-03-17T03:17:07.484Z,64.07
2023-03-17T03:18:07.434Z,63.56
2023-03-17T03:19:07.433Z,63.56
2023-03-17T03:20:07.421Z,63.87
2023-03-17T03:21:07.408Z,64.07
2023-03-17T03:22:07.378Z,63.97
2023-03-17T03:23:07.382Z,64.07
2023-03-17T03:24:07.389Z,63.87
2023-03-17T03:25:07.352Z,63.66
2023-03-17T03:26:07.422Z,63.53
2023-03-17T03:27:07.357Z,63.25
2023-03-17T03:28:07.345Z,63.35
2023-03-17T03:29:07.325Z,63.32
2023-03-17T03:30:07.301Z,63.53
2023-03-17T03:31:07.317Z,63.43
2023-03-17T03:32:07.294Z,63.25
2023-03-17T03:33:07.336Z,63.46
2023-03-17T03:34:07.254Z,63.35
2023-03-17T03:35:07.250Z,63.46
2023-03-17T03:36:07.300Z,63.53
2023-03-17T03:37:07.221Z,63.32
2023-03-17T03:38:07.273Z,63.32
2023-03-17T03:39:07.260Z,63.32
2023-03-17T03:40:07.209Z,63.22
2023-03-17T03:41:07.220Z,63.12
2023-03-17T03:42:07.216Z,63.22
2023-03-17T03:43:21.884Z,63.15
2023-03-17T03:44:08.163Z,63.35
2023-03-17T03:45:07.164Z,63.15
2023-03-17T03:46:07.201Z,63.01
2023-03-17T03:47:07.148Z,63.04
2023-03-17T03:48:07.145Z,62.94
2023-03-17T03:49:07.097Z,63.04
2023-03-17T03:50:07.119Z,63.04
2023-03-17T03:51:07.131Z,63.25
2023-03-17T03:52:07.103Z,63.01
2023-03-17T03:53:07.075Z,63.25
2023-03-17T03:54:07.040Z,63.25
2023-03-17T03:55:07.075Z,63.25
2023-03-17T03:56:07.071Z,63.12
2023-03-17T03:57:07.026Z,63.22
2023-03-17T03:58:07.027Z,62.91
2023-03-17T03:59:07.048Z,62.84
2023-03-17T04:00:06.991Z,63.01
2023-03-17T04:01:07.009Z,62.60
2023-03-17T04:02:09.348Z,62.70
2023-03-17T04:03:07.013Z,62.49
2023-03-17T04:04:06.947Z,62.73
2023-03-17T04:05:07.012Z,62.73
2023-03-17T04:06:06.938Z,62.84
2023-03-17T04:07:06.920Z,62.94
2023-03-17T04:08:06.938Z,62.84
2023-03-17T04:09:06.903Z,62.94
2023-03-17T04:10:06.905Z,62.73
2023-03-17T04:11:06.923Z,62.73
2023-03-17T04:12:07.378Z,62.84
2023-03-17T04:13:06.870Z,62.94
2023-03-17T04:14:06.830Z,62.84
2023-03-17T04:15:06.830Z,62.84
2023-03-17T04:16:06.878Z,63.04
2023-03-17T04:17:06.825Z,62.94
2023-03-17T04:18:06.816Z,62.94
2023-03-17T04:19:06.892Z,62.73
2023-03-17T04:20:06.799Z,62.63
2023-03-17T04:21:06.800Z,62.52
2023-03-17T04:22:06.812Z,62.63
2023-03-17T04:23:06.797Z,62.63
2023-03-17T04:24:06.799Z,62.52
2023-03-17T04:25:06.753Z,62.52
2023-03-17T04:26:06.731Z,62.73
2023-03-17T04:27:06.719Z,62.94
2023-03-17T04:28:06.759Z,62.84
2023-03-17T04:29:06.690Z,62.84
2023-03-17T04:30:06.699Z,62.73
2023-03-17T04:31:06.720Z,62.84
2023-03-17T04:32:06.654Z,62.84
2023-03-17T04:33:06.724Z,62.84
2023-03-17T04:34:06.681Z,62.63
2023-03-17T04:35:06.624Z,62.63
2023-03-17T04:36:06.682Z,62.94
2023-03-17T04:37:06.664Z,62.52
2023-03-17T04:38:06.643Z,62.63
2023-03-17T04:39:06.530Z,62.73
2023-03-17T04:40:06.644Z,62.84
2023-03-17T04:41:06.570Z,62.73
2023-03-17T04:42:06.591Z,62.63
2023-03-17T04:43:06.621Z,62.73
2023-03-17T04:44:06.532Z,62.84
2023-03-17T04:45:06.488Z,62.73
2023-03-17T04:46:06.522Z,62.52
2023-03-17T04:47:06.484Z,62.63
2023-03-17T04:48:06.510Z,62.52
2023-03-17T04:49:06.493Z,62.63
2023-03-17T04:50:06.435Z,62.73
2023-03-17T04:51:06.416Z,62.52
2023-03-17T04:52:06.441Z,62.63
2023-03-17T04:53:06.394Z,62.63
2023-03-17T04:54:06.364Z,62.42
2023-03-17T04:55:06.367Z,62.52
2023-03-17T04:56:06.396Z,62.42
2023-03-17T04:57:06.344Z,62.52
2023-03-17T04:58:06.334Z,62.76
2023-03-17T04:59:06.349Z,62.63
2023-03-17T05:00:06.337Z,62.76
2023-03-17T05:01:06.387Z,62.84
2023-03-17T05:02:06.386Z,62.32
2023-03-17T05:03:16.758Z,62.21
2023-03-17T05:04:07.394Z,62.35
2023-03-17T05:05:06.310Z,62.42
2023-03-17T05:06:06.299Z,62.32
2023-03-17T05:07:06.228Z,62.32
2023-03-17T05:08:06.238Z,62.32
2023-03-17T05:09:06.236Z,62.32
2023-03-17T05:10:06.224Z,62.32
2023-03-17T05:11:06.253Z,62.32
2023-03-17T05:12:06.205Z,62.01
2023-03-17T05:13:06.217Z,61.80
2023-03-17T05:14:06.220Z,62.01
2023-03-17T05:15:06.157Z,62.11
2023-03-17T05:16:06.154Z,62.01
2023-03-17T05:17:06.148Z,62.01
2023-03-17T05:18:06.155Z,62.11
2023-03-17T05:19:06.155Z,62.11
2023-03-17T05:20:06.142Z,61.90
2023-03-17T05:21:06.110Z,61.59
2023-03-17T05:22:06.117Z,61.69
2023-03-17T05:23:06.063Z,61.59
2023-03-17T05:24:06.082Z,61.69
2023-03-17T05:25:06.070Z,61.49
2023-03-17T05:26:06.041Z,61.80
2023-03-17T05:27:06.064Z,61.80
2023-03-17T05:28:06.060Z,61.69
2023-03-17T05:29:06.011Z,61.69
2023-03-17T05:30:06.050Z,61.69
2023-03-17T05:31:06.092Z,61.80
2023-03-17T05:32:06.000Z,61.69
2023-03-17T05:33:06.068Z,61.49
2023-03-17T05:34:05.973Z,61.49
2023-03-17T05:35:06.081Z,61.28
2023-03-17T05:36:06.013Z,61.38
2023-03-17T05:37:05.990Z,61.28
2023-03-17T05:38:05.993Z,61.57
2023-03-17T05:39:05.897Z,61.07
2023-03-17T05:40:05.900Z,61.28
2023-03-17T05:41:05.920Z,61.59
2023-03-17T05:42:05.978Z,61.46
2023-03-17T05:43:05.850Z,61.25
2023-03-17T05:44:05.960Z,61.18
2023-03-17T05:45:05.878Z,61.28
2023-03-17T05:46:05.907Z,61.57
2023-03-17T05:47:05.938Z,61.28
2023-03-17T05:48:05.862Z,60.94
2023-03-17T05:49:06.040Z,61.05
2023-03-17T05:50:05.971Z,61.05
2023-03-17T05:51:05.776Z,61.05
2023-03-17T05:52:05.802Z,60.94
2023-03-17T05:53:05.820Z,60.94
2023-03-17T05:54:05.865Z,60.63
2023-03-17T05:55:05.870Z,60.63
2023-03-17T05:56:05.774Z,60.84
2023-03-17T05:57:05.732Z,60.63
2023-03-17T05:58:05.758Z,60.74
2023-03-17T05:59:05.745Z,60.84
2023-03-17T06:00:05.848Z,60.74
2023-03-17T06:01:05.696Z,60.84
2023-03-17T06:02:05.809Z,60.63
2023-03-17T06:03:05.695Z,60.42
2023-03-17T06:04:05.696Z,60.53
2023-03-17T06:05:05.668Z,60.74
2023-03-17T06:06:05.615Z,60.63
2023-03-17T06:07:05.608Z,60.53
2023-03-17T06:08:05.628Z,60.63
2023-03-17T06:09:05.640Z,60.53
2023-03-17T06:10:05.634Z,60.53
2023-03-17T06:11:05.606Z,60.50
2023-03-17T06:12:05.755Z,60.32
2023-03-17T06:13:05.629Z,60.42
2023-03-17T06:14:05.585Z,60.53
2023-03-17T06:15:05.579Z,60.32
2023-03-17T06:16:05.553Z,60.32
2023-03-17T06:17:05.669Z,60.42
2023-03-17T06:18:05.629Z,60.42
2023-03-17T06:19:05.581Z,60.63
2023-03-17T06:20:05.616Z,60.63
2023-03-17T06:21:05.516Z,60.63
2023-03-17T06:22:05.470Z,60.84
2023-03-17T06:23:06.198Z,60.53
2023-03-17T06:24:05.492Z,60.42
2023-03-17T06:25:05.495Z,60.22
2023-03-17T06:26:05.620Z,60.32
2023-03-17T06:27:05.446Z,60.42
2023-03-17T06:28:05.419Z,60.42
2023-03-17T06:29:05.443Z,60.50
2023-03-17T06:30:05.456Z,60.09
2023-03-17T06:31:07.346Z,60.09
2023-03-17T06:32:19.528Z,60.19
2023-03-17T06:33:06.405Z,59.99
2023-03-17T06:34:05.418Z,59.85
2023-03-17T06:35:05.335Z,59.55
2023-03-17T06:36:05.374Z,59.67
2023-03-17T06:37:07.107Z,59.67
2023-03-17T06:38:05.317Z,60.37
2023-03-17T06:39:06.238Z,59.95
2023-03-17T06:40:05.959Z,59.55
2023-03-17T06:41:05.333Z,59.55
2023-03-17T06:42:06.440Z,59.44
2023-03-17T06:43:05.671Z,59.55
2023-03-17T06:44:05.286Z,59.75
2023-03-17T06:45:05.288Z,59.23
2023-03-17T06:46:05.269Z,59.75
2023-03-17T06:47:05.239Z,59.44
2023-03-17T06:48:05.213Z,59.55
2023-03-17T06:49:05.192Z,58.92
2023-03-17T06:50:05.213Z,59.23
2023-03-17T06:51:05.204Z,59.34
2023-03-17T06:52:05.235Z,59.23
2023-03-17T06:53:05.143Z,58.82
2023-03-17T06:54:05.243Z,59.03
2023-03-17T06:55:05.143Z,59.03
2023-03-17T06:56:05.350Z,59.00
2023-03-17T06:57:05.116Z,58.79
2023-03-17T06:58:05.108Z,58.69
2023-03-17T06:59:05.171Z,58.48
2023-03-17T07:00:05.097Z,58.48
2023-03-17T07:01:05.105Z,58.07
2023-03-17T07:02:05.089Z,58.07
2023-03-17T07:03:05.057Z,58.07
2023-03-17T07:04:05.030Z,57.86
2023-03-17T07:05:05.697Z,58.07
2023-03-17T07:06:05.014Z,57.76
2023-03-17T07:07:05.226Z,57.86
2023-03-17T07:08:05.009Z,57.84
2023-03-17T07:09:05.003Z,57.63
2023-03-17T07:10:05.028Z,57.63
2023-03-17T07:11:05.179Z,57.84
2023-03-17T07:12:05.017Z,57.84
2023-03-17T07:13:04.950Z,57.32
2023-03-17T07:14:04.966Z,57.53
2023-03-17T07:15:04.943Z,57.63
2023-03-17T07:16:05.004Z,57.50
2023-03-17T07:17:04.996Z,57.19
2023-03-17T07:18:04.918Z,57.09
2023-03-17T07:19:04.913Z,56.98
2023-03-17T07:20:04.923Z,56.77
2023-03-17T07:21:04.886Z,56.88
2023-03-17T07:22:04.886Z,56.98
2023-03-17T07:23:04.871Z,56.77
2023-03-17T07:24:04.866Z,56.57
2023-03-17T07:25:04.855Z,56.57
2023-03-17T07:26:04.804Z,56.88
2023-03-17T07:27:04.874Z,56.98
2023-03-17T07:28:04.926Z,56.77
2023-03-17T07:29:04.829Z,56.88
2023-03-17T07:30:04.818Z,56.77
2023-03-17T07:31:04.835Z,56.65
2023-03-17T07:32:04.751Z,56.54
2023-03-17T07:33:04.777Z,56.34
2023-03-17T07:34:04.775Z,56.10
2023-03-17T07:35:04.812Z,55.80
2023-03-17T07:36:04.802Z,55.69
2023-03-17T07:37:04.782Z,55.49
2023-03-17T07:38:04.688Z,55.26
2023-03-17T07:39:04.710Z,55.15
2023-03-17T07:40:04.708Z,54.94
2023-03-17T07:41:04.669Z,54.94
2023-03-17T07:42:04.634Z,54.74
2023-03-17T07:43:04.643Z,54.71
2023-03-17T07:44:05.358Z,54.41
2023-03-17T07:45:04.709Z,54.28
2023-03-17T07:46:06.446Z,53.97
2023-03-17T07:47:04.597Z,53.97
2023-03-17T07:48:04.582Z,53.66
2023-03-17T07:49:05.147Z,53.56
2023-03-17T07:50:04.542Z,53.66
2023-03-17T07:51:04.595Z,53.35
2023-03-17T07:52:04.666Z,53.97
2023-03-17T07:53:04.535Z,53.97
2023-03-17T07:54:04.554Z,53.66
2023-03-17T07:55:04.540Z,53.56
2023-03-17T07:56:04.543Z,53.45
2023-03-17T07:57:04.494Z,53.66
2023-03-17T07:58:04.476Z,53.45
2023-03-17T07:59:04.488Z,53.56
2023-03-17T08:00:04.462Z,53.35
2023-03-17T08:01:04.475Z,52.81
2023-03-17T08:02:04.523Z,52.91
2023-03-17T08:03:10.349Z,52.61
2023-03-17T08:04:05.513Z,52.17
2023-03-17T08:05:04.415Z,51.86
2023-03-17T08:06:04.429Z,51.94
2023-03-17T08:07:04.410Z,51.32
2023-03-17T08:08:04.399Z,51.42
2023-03-17T08:09:04.376Z,51.42
2023-03-17T08:10:04.362Z,51.09
2023-03-17T08:11:04.375Z,50.48
2023-03-17T08:12:04.357Z,50.58
2023-03-17T08:13:04.355Z,50.58
2023-03-17T08:14:04.427Z,50.35
2023-03-17T08:15:04.367Z,49.94
2023-03-17T08:16:04.409Z,49.81
2023-03-17T08:17:04.409Z,49.27
2023-03-17T08:18:04.278Z,48.86
2023-03-17T08:19:04.525Z,48.33
2023-03-17T08:20:04.426Z,48.13
2023-03-17T08:21:04.256Z,48.33
2023-03-17T08:22:04.245Z,48.25
2023-03-17T08:23:04.252Z,48.56
2023-03-17T08:24:04.204Z,48.66
2023-03-17T08:25:04.277Z,48.86
2023-03-17T08:26:04.332Z,48.56
2023-03-17T08:27:04.162Z,48.46
2023-03-17T08:28:04.249Z,48.68
2023-03-17T08:29:04.161Z,48.86
2023-03-17T08:30:04.267Z,48.56
2023-03-17T08:31:04.185Z,48.46
2023-03-17T08:32:04.195Z,48.46
2023-03-17T08:33:04.174Z,48.04
2023-03-17T08:34:04.129Z,47.84
2023-03-17T08:35:04.103Z,47.51
2023-03-17T08:36:04.136Z,47.41
2023-03-17T08:37:04.051Z,47.71
2023-03-17T08:38:04.064Z,47.61
2023-03-17T08:39:04.069Z,47.51
2023-03-17T08:40:04.062Z,47.92
2023-03-17T08:41:04.075Z,47.61
2023-03-17T08:42:04.011Z,47.51
2023-03-17T08:43:04.017Z,47.51
2023-03-17T08:44:03.994Z,47.49
2023-03-17T08:45:03.968Z,47.49
2023-03-17T08:46:04.067Z,47.38
2023-03-17T08:47:03.984Z,47.28
2023-03-17T08:48:03.985Z,47.49
2023-03-17T08:49:03.939Z,47.38
2023-03-17T08:50:03.952Z,47.59
2023-03-17T08:51:03.917Z,47.18
2023-03-17T08:52:03.943Z,47.28
2023-03-17T08:53:03.928Z,47.08
2023-03-17T08:54:03.888Z,47.18
2023-03-17T08:55:03.902Z,47.18
2023-03-17T08:56:03.928Z,47.49
2023-03-17T08:57:03.849Z,47.36
2023-03-17T08:58:03.838Z,46.95
2023-03-17T08:59:03.832Z,46.83
2023-03-17T09:00:03.831Z,46.83
2023-03-17T09:01:04.699Z,46.31
2023-03-17T09:02:03.821Z,46.42
2023-03-17T09:03:03.896Z,46.42
2023-03-17T09:04:03.774Z,46.01
2023-03-17T09:05:03.927Z,46.11
2023-03-17T09:06:03.767Z,46.21
2023-03-17T09:07:04.521Z,46.31
2023-03-17T09:08:03.791Z,46.31
2023-03-17T09:09:03.754Z,46.52
2023-03-17T09:10:03.742Z,46.52
2023-03-17T09:11:03.926Z,46.52
2023-03-17T09:12:03.733Z,46.62
2023-03-17T09:13:03.731Z,46.72
2023-03-17T09:14:03.688Z,46.42
2023-03-17T09:15:03.735Z,46.52
2023-03-17T09:16:03.841Z,46.39
2023-03-17T09:17:05.863Z,45.89
2023-03-17T09:18:03.660Z,45.78
2023-03-17T09:19:03.665Z,45.98
2023-03-17T09:20:03.671Z,45.47
2023-03-17T09:21:03.664Z,45.47
2023-03-17T09:22:03.624Z,45.37
2023-03-17T09:23:03.611Z,45.47
2023-03-17T09:24:03.568Z,45.47
2023-03-17T09:25:03.617Z,45.04
2023-03-17T09:26:03.579Z,45.35
2023-03-17T09:27:03.552Z,45.04
2023-03-17T09:28:03.539Z,44.84
2023-03-17T09:29:04.656Z,45.25
2023-03-17T09:30:03.541Z,45.02
2023-03-17T09:31:03.568Z,44.82
2023-03-17T09:32:03.482Z,45.12
2023-03-17T09:33:03.588Z,45.23
2023-03-17T09:34:03.519Z,45.23
2023-03-17T09:35:03.492Z,45.02
2023-03-17T09:36:03.613Z,45.25
2023-03-17T09:37:03.468Z,45.56
2023-03-17T09:38:03.432Z,45.15
2023-03-17T09:39:03.437Z,45.04
2023-03-17T09:40:03.425Z,44.82
2023-03-17T09:41:03.446Z,44.71
2023-03-17T09:42:03.422Z,44.82
2023-03-17T09:43:03.411Z,44.71
2023-03-17T09:44:03.368Z,44.59
2023-03-17T09:45:03.388Z,44.18
2023-03-17T09:46:03.457Z,44.51
2023-03-17T09:47:03.503Z,44.82
2023-03-17T09:48:03.588Z,44.79
2023-03-17T09:49:03.696Z,44.79
2023-03-17T09:50:03.760Z,44.37
2023-03-17T09:51:04.958Z,44.06
2023-03-17T09:52:03.546Z,43.73
2023-03-17T09:53:04.123Z,43.63
2023-03-17T09:54:03.532Z,43.51
2023-03-17T09:55:03.549Z,43.38
2023-03-17T09:56:03.391Z,42.77
2023-03-17T09:57:03.806Z,42.76
2023-03-17T09:58:03.301Z,42.57
2023-03-17T09:59:03.577Z,42.16
2023-03-17T10:00:03.197Z,42.24
2023-03-17T10:01:03.222Z,42.04
2023-03-17T10:02:03.255Z,41.82
2023-03-17T10:03:03.139Z,41.92
2023-03-17T10:04:03.124Z,41.82
2023-03-17T10:05:03.492Z,41.69
2023-03-17T10:06:03.104Z,41.59
2023-03-17T10:07:03.160Z,41.49
2023-03-17T10:08:03.110Z,41.49
2023-03-17T10:09:03.105Z,41.37
2023-03-17T10:10:03.149Z,41.27
2023-03-17T10:11:03.049Z,41.27
2023-03-17T10:12:03.171Z,41.37
2023-03-17T10:13:03.688Z,41.37
2023-03-17T10:14:03.037Z,41.37
2023-03-17T10:15:03.085Z,41.69
2023-03-17T10:16:03.318Z,41.69
2023-03-17T10:17:03.032Z,41.57
2023-03-17T10:18:02.996Z,41.47
2023-03-17T10:19:03.009Z,41.25
2023-03-17T10:20:02.987Z,41.25
2023-03-17T10:21:02.941Z,41.25
2023-03-17T10:22:02.959Z,40.84
2023-03-17T10:23:02.965Z,40.84
2023-03-17T10:24:02.991Z,41.25
2023-03-17T10:25:03.861Z,41.05
2023-03-17T10:26:02.938Z,40.84
2023-03-17T10:27:02.910Z,41.14
2023-03-17T10:28:02.904Z,41.05
2023-03-17T10:29:02.859Z,40.94
2023-03-17T10:30:02.985Z,41.25
2023-03-17T10:31:02.978Z,40.94
2023-03-17T10:32:02.887Z,40.92
2023-03-17T10:33:02.926Z,41.33
2023-03-17T10:34:03.551Z,41.13
2023-03-17T10:35:02.851Z,40.92
2023-03-17T10:36:02.861Z,41.13
2023-03-17T10:37:02.872Z,40.52
2023-03-17T10:38:14.173Z,40.41
2023-03-17T10:39:03.776Z,40.62
2023-03-17T10:40:02.774Z,40.72
2023-03-17T10:41:03.070Z,40.41
2023-03-17T10:42:02.894Z,40.62
2023-03-17T10:43:02.748Z,40.41
2023-03-17T10:44:02.797Z,39.90
2023-03-17T10:45:02.735Z,40.30
2023-03-17T10:46:02.691Z,40.50
2023-03-17T10:47:02.794Z,40.19
2023-03-17T10:48:02.674Z,39.99
2023-03-17T10:49:02.673Z,39.58
2023-03-17T10:50:02.700Z,39.66
2023-03-17T10:51:02.677Z,39.76
2023-03-17T10:52:02.869Z,39.66
2023-03-17T10:53:02.697Z,39.89
2023-03-17T10:54:02.705Z,40.09
2023-03-17T10:55:02.642Z,40.39
2023-03-17T10:56:02.729Z,40.39
2023-03-17T10:57:02.637Z,40.50
2023-03-17T10:58:02.701Z,40.50
2023-03-17T10:59:02.566Z,40.19
2023-03-17T11:00:02.544Z,40.39
2023-03-17T11:01:02.580Z,40.50
2023-03-17T11:02:02.557Z,40.91
2023-03-17T11:03:02.527Z,40.80
2023-03-17T11:04:02.679Z,40.50
2023-03-17T11:05:02.578Z,40.80
2023-03-17T11:06:02.493Z,41.00
2023-03-17T11:07:02.501Z,40.50
2023-03-17T11:08:02.533Z,40.91
2023-03-17T11:09:02.458Z,40.80
2023-03-17T11:10:02.461Z,40.91
2023-03-17T11:11:02.415Z,41.11
2023-03-17T11:12:02.453Z,40.88
2023-03-17T11:13:02.495Z,41.11
2023-03-17T11:14:02.449Z,41.11
2023-03-17T11:15:02.405Z,41.00
2023-03-17T11:16:02.385Z,41.19
2023-03-17T11:17:02.358Z,41.19
2023-03-17T11:18:02.367Z,41.38
2023-03-17T11:19:02.357Z,41.29
2023-03-17T11:20:02.335Z,40.66
2023-03-17T11:21:02.344Z,40.78
2023-03-17T11:22:02.285Z,41.07
2023-03-17T11:23:02.282Z,40.77
2023-03-17T11:24:02.289Z,40.56
2023-03-17T11:25:02.486Z,40.64
2023-03-17T11:26:02.321Z,40.46
2023-03-17T11:27:02.265Z,40.23
2023-03-17T11:28:02.286Z,40.14
2023-03-17T11:29:02.257Z,40.14
2023-03-17T11:30:02.304Z,40.03
2023-03-17T11:31:02.303Z,39.93
2023-03-17T11:32:02.251Z,40.03
2023-03-17T11:33:02.229Z,40.23
2023-03-17T11:34:02.287Z,40.23
2023-03-17T11:35:02.190Z,40.03
2023-03-17T11:36:02.224Z,39.73
2023-03-17T11:37:02.204Z,40.12
2023-03-17T11:38:02.225Z,40.01
2023-03-17T11:39:02.140Z,39.59
2023-03-17T11:40:02.183Z,39.39
2023-03-17T11:41:02.132Z,39.39
2023-03-17T11:42:02.109Z,39.39
2023-03-17T11:43:02.098Z,39.28
2023-03-17T11:44:02.095Z,39.59
2023-03-17T11:45:02.076Z,39.39
2023-03-17T11:46:02.062Z,39.39
2023-03-17T11:47:02.052Z,39.18
2023-03-17T11:48:02.067Z,39.18
2023-03-17T11:49:02.051Z,39.06
2023-03-17T11:50:02.033Z,39.06
2023-03-17T11:51:02.031Z,38.86
2023-03-17T11:52:02.099Z,38.43
2023-03-17T11:53:02.038Z,38.86
2023-03-17T11:54:02.005Z,38.96
2023-03-17T11:55:01.979Z,39.17
2023-03-17T11:56:01.962Z,39.26
2023-03-17T11:57:02.003Z,39.35
2023-03-17T11:58:01.908Z,38.95
2023-03-17T11:59:01.922Z,39.15
2023-03-17T12:00:01.881Z,39.26
2023-03-17T12:01:01.869Z,39.26
2023-03-17T12:02:02.024Z,39.37
2023-03-17T12:03:01.914Z,39.67
2023-03-17T12:04:02.037Z,40.09
2023-03-17T12:05:01.869Z,40.20
2023-03-17T12:06:01.832Z,39.47
2023-03-17T12:07:01.825Z,39.26
2023-03-17T12:08:01.848Z,39.17
2023-03-17T12:09:01.778Z,39.17
2023-03-17T12:10:01.810Z,39.37
2023-03-17T12:11:01.836Z,39.47
2023-03-17T12:12:01.809Z,39.87
2023-03-17T12:13:01.755Z,39.57
2023-03-17T12:14:01.726Z,39.57
2023-03-17T12:15:01.746Z,39.78
2023-03-17T12:16:01.844Z,39.47
2023-03-17T12:17:01.828Z,39.67
2023-03-17T12:18:01.752Z,39.67
2023-03-17T12:19:01.705Z,39.78
2023-03-17T12:20:01.872Z,39.87
2023-03-17T12:21:01.745Z,40.08
2023-03-17T12:22:01.718Z,40.08
2023-03-17T12:23:01.760Z,40.18
2023-03-17T12:24:01.664Z,40.08
2023-03-17T12:25:01.621Z,39.75
2023-03-17T12:26:01.616Z,39.78
2023-03-17T12:27:01.796Z,39.78
2023-03-17T12:28:01.720Z,39.87
2023-03-17T12:29:01.596Z,39.78
2023-03-17T12:30:01.601Z,39.67
2023-03-17T12:31:01.654Z,39.87
2023-03-17T12:32:01.562Z,40.18
2023-03-17T12:33:01.740Z,39.98
2023-03-17T12:34:01.813Z,40.18
2023-03-17T12:35:01.652Z,40.00
2023-03-17T12:36:01.532Z,40.08
2023-03-17T12:37:01.569Z,40.18
2023-03-17T12:38:01.474Z,40.18
2023-03-17T12:39:01.559Z,39.98
2023-03-17T12:40:01.452Z,39.67
2023-03-17T12:41:01.480Z,39.87
2023-03-17T12:42:01.587Z,40.18
2023-03-17T12:43:01.556Z,39.89
2023-03-17T12:44:01.520Z,40.00
2023-03-17T12:45:01.432Z,40.09
2023-03-17T12:46:01.409Z,39.98
2023-03-17T12:47:02.097Z,40.08
2023-03-17T12:48:01.453Z,39.75
2023-03-17T12:49:01.488Z,39.45
2023-03-17T12:50:01.368Z,39.45
2023-03-17T12:51:01.439Z,39.55
2023-03-17T12:52:01.354Z,39.73